sensor_id;sensor_type;location;lat;lon;timestamp;P1;durP1;ratioP1;P2;durP2;ratioP2
40755;SDS011;26461;45.630;9.418;2023-06-26T00:01:27;6.43;;;5.03;;
40755;SDS011;26461;45.630;9.418;2023-06-26T00:04:38;5.37;;;4.37;;
40755;SDS011;26461;45.630;9.418;2023-06-26T00:07:48;7.57;;;4.93;;
40755;SDS011;26461;45.630;9.418;2023-06-26T00:10:53;5.90;;;4.30;;
40755;SDS011;26461;45.630;9.418;2023-06-26T00:13:58;8.30;;;5.03;;
40755;SDS011;26461;45.630;9.418;2023-06-26T00:17:05;8.43;;;4.73;;
40755;SDS011;26461;45.630;9.418;2023-06-26T00:20:09;5.27;;;4.47;;
40755;SDS011;26461;45.630;9.418;2023-06-26T00:23:17;4.97;;;4.20;;
40755;SDS011;26461;45.630;9.418;2023-06-26T00:26:23;4.57;;;4.27;;
40755;SDS011;26461;45.630;9.418;2023-06-26T00:29:28;6.60;;;3.87;;
40755;SDS011;26461;45.630;9.418;2023-06-26T00:32:38;4.33;;;4.07;;
40755;SDS011;26461;45.630;9.418;2023-06-26T00:35:42;4.43;;;4.10;;
40755;SDS011;26461;45.630;9.418;2023-06-26T00:38:52;6.30;;;4.30;;
40755;SDS011;26461;45.630;9.418;2023-06-26T00:41:57;4.30;;;3.67;;
40755;SDS011;26461;45.630;9.418;2023-06-26T00:45:02;5.00;;;4.30;;
40755;SDS011;26461;45.630;9.418;2023-06-26T00:48:07;6.90;;;4.77;;
40755;SDS011;26461;45.630;9.418;2023-06-26T00:51:21;5.23;;;4.90;;
40755;SDS011;26461;45.630;9.418;2023-06-26T00:54:28;4.67;;;4.10;;
40755;SDS011;26461;45.630;9.418;2023-06-26T00:57:37;5.60;;;4.23;;
40755;SDS011;26461;45.630;9.418;2023-06-26T01:00:42;4.93;;;4.40;;
40755;SDS011;26461;45.630;9.418;2023-06-26T01:03:49;4.27;;;3.80;;
40755;SDS011;26461;45.630;9.418;2023-06-26T01:07:03;7.23;;;5.30;;
40755;SDS011;26461;45.630;9.418;2023-06-26T01:10:13;5.17;;;4.23;;
40755;SDS011;26461;45.630;9.418;2023-06-26T01:13:19;6.27;;;4.77;;
40755;SDS011;26461;45.630;9.418;2023-06-26T01:16:30;7.13;;;5.00;;
40755;SDS011;26461;45.630;9.418;2023-06-26T01:19:36;5.57;;;5.00;;
40755;SDS011;26461;45.630;9.418;2023-06-26T01:26:27;4.83;;;4.60;;
40755;SDS011;26461;45.630;9.418;2023-06-26T01:29:34;5.43;;;5.13;;
40755;SDS011;26461;45.630;9.418;2023-06-26T01:32:45;4.97;;;4.67;;
40755;SDS011;26461;45.630;9.418;2023-06-26T01:35:51;6.37;;;5.13;;
40755;SDS011;26461;45.630;9.418;2023-06-26T01:39:01;8.27;;;4.47;;
40755;SDS011;26461;45.630;9.418;2023-06-26T01:42:06;6.33;;;4.10;;
40755;SDS011;26461;45.630;9.418;2023-06-26T01:45:18;4.50;;;4.20;;
40755;SDS011;26461;45.630;9.418;2023-06-26T01:48:39;4.70;;;4.40;;
40755;SDS011;26461;45.630;9.418;2023-06-26T01:51:56;4.87;;;4.57;;
40755;SDS011;26461;45.630;9.418;2023-06-26T01:55:15;5.83;;;5.60;;
40755;SDS011;26461;45.630;9.418;2023-06-26T01:58:41;5.10;;;4.73;;
40755;SDS011;26461;45.630;9.418;2023-06-26T02:01:54;4.73;;;4.43;;
40755;SDS011;26461;45.630;9.418;2023-06-26T02:04:59;4.77;;;4.40;;
40755;SDS011;26461;45.630;9.418;2023-06-26T02:08:04;6.57;;;4.60;;
40755;SDS011;26461;45.630;9.418;2023-06-26T02:11:09;5.73;;;5.30;;
40755;SDS011;26461;45.630;9.418;2023-06-26T02:14:19;5.50;;;5.23;;
40755;SDS011;26461;45.630;9.418;2023-06-26T02:17:24;5.87;;;5.57;;
40755;SDS011;26461;45.630;9.418;2023-06-26T02:20:32;6.63;;;4.73;;
40755;SDS011;26461;45.630;9.418;2023-06-26T02:23:42;6.10;;;4.20;;
40755;SDS011;26461;45.630;9.418;2023-06-26T02:26:47;5.93;;;5.63;;
40755;SDS011;26461;45.630;9.418;2023-06-26T02:29:53;6.00;;;5.20;;
40755;SDS011;26461;45.630;9.418;2023-06-26T02:33:03;5.73;;;5.30;;
40755;SDS011;26461;45.630;9.418;2023-06-26T02:36:13;6.77;;;4.53;;
40755;SDS011;26461;45.630;9.418;2023-06-26T02:39:18;5.30;;;4.80;;
40755;SDS011;26461;45.630;9.418;2023-06-26T02:42:27;6.77;;;6.20;;
40755;SDS011;26461;45.630;9.418;2023-06-26T02:45:32;6.57;;;5.30;;
40755;SDS011;26461;45.630;9.418;2023-06-26T02:48:37;7.60;;;4.40;;
40755;SDS011;26461;45.630;9.418;2023-06-26T02:51:47;5.40;;;5.10;;
40755;SDS011;26461;45.630;9.418;2023-06-26T02:55:00;5.87;;;5.50;;
40755;SDS011;26461;45.630;9.418;2023-06-26T02:58:04;5.20;;;4.67;;
40755;SDS011;26461;45.630;9.418;2023-06-26T03:01:11;7.60;;;5.50;;
40755;SDS011;26461;45.630;9.418;2023-06-26T03:04:17;5.63;;;5.30;;
40755;SDS011;26461;45.630;9.418;2023-06-26T03:07:27;4.97;;;4.70;;
40755;SDS011;26461;45.630;9.418;2023-06-26T03:10:37;6.20;;;5.53;;
40755;SDS011;26461;45.630;9.418;2023-06-26T03:13:43;5.37;;;4.37;;
40755;SDS011;26461;45.630;9.418;2023-06-26T03:16:53;6.40;;;4.90;;
40755;SDS011;26461;45.630;9.418;2023-06-26T03:20:09;5.23;;;4.70;;
40755;SDS011;26461;45.630;9.418;2023-06-26T03:23:25;6.07;;;4.77;;
40755;SDS011;26461;45.630;9.418;2023-06-26T03:26:29;5.70;;;4.90;;
40755;SDS011;26461;45.630;9.418;2023-06-26T03:29:39;6.63;;;3.90;;
40755;SDS011;26461;45.630;9.418;2023-06-26T03:32:44;6.07;;;4.73;;
40755;SDS011;26461;45.630;9.418;2023-06-26T03:35:49;5.60;;;4.77;;
40755;SDS011;26461;45.630;9.418;2023-06-26T03:38:59;8.33;;;4.40;;
40755;SDS011;26461;45.630;9.418;2023-06-26T03:42:10;5.67;;;4.63;;
40755;SDS011;26461;45.630;9.418;2023-06-26T03:45:19;5.77;;;5.10;;
40755;SDS011;26461;45.630;9.418;2023-06-26T03:48:25;5.30;;;5.00;;
40755;SDS011;26461;45.630;9.418;2023-06-26T03:51:36;6.63;;;4.40;;
40755;SDS011;26461;45.630;9.418;2023-06-26T03:54:46;4.90;;;4.60;;
40755;SDS011;26461;45.630;9.418;2023-06-26T03:57:55;5.60;;;4.60;;
40755;SDS011;26461;45.630;9.418;2023-06-26T04:01:05;5.13;;;4.50;;
40755;SDS011;26461;45.630;9.418;2023-06-26T04:04:10;4.63;;;4.33;;
40755;SDS011;26461;45.630;9.418;2023-06-26T04:07:20;5.70;;;4.90;;
40755;SDS011;26461;45.630;9.418;2023-06-26T04:10:24;8.43;;;4.87;;
40755;SDS011;26461;45.630;9.418;2023-06-26T04:13:34;5.33;;;4.10;;
40755;SDS011;26461;45.630;9.418;2023-06-26T04:16:39;4.63;;;4.37;;
40755;SDS011;26461;45.630;9.418;2023-06-26T04:19:44;5.00;;;4.40;;
40755;SDS011;26461;45.630;9.418;2023-06-26T04:22:49;5.73;;;4.67;;
40755;SDS011;26461;45.630;9.418;2023-06-26T04:25:53;5.40;;;4.13;;
40755;SDS011;26461;45.630;9.418;2023-06-26T04:29:03;5.90;;;4.80;;
40755;SDS011;26461;45.630;9.418;2023-06-26T04:32:08;4.60;;;4.30;;
40755;SDS011;26461;45.630;9.418;2023-06-26T04:35:13;3.67;;;3.50;;
40755;SDS011;26461;45.630;9.418;2023-06-26T04:38:23;5.10;;;4.83;;
40755;SDS011;26461;45.630;9.418;2023-06-26T04:41:32;6.27;;;5.30;;
40755;SDS011;26461;45.630;9.418;2023-06-26T04:44:37;5.30;;;5.00;;
40755;SDS011;26461;45.630;9.418;2023-06-26T04:47:48;4.53;;;4.10;;
40755;SDS011;26461;45.630;9.418;2023-06-26T04:50:53;4.87;;;4.57;;
40755;SDS011;26461;45.630;9.418;2023-06-26T04:53:59;5.67;;;4.33;;
40755;SDS011;26461;45.630;9.418;2023-06-26T04:57:05;4.30;;;4.03;;
40755;SDS011;26461;45.630;9.418;2023-06-26T05:00:15;5.00;;;4.70;;
40755;SDS011;26461;45.630;9.418;2023-06-26T05:03:21;4.63;;;3.90;;
40755;SDS011;26461;45.630;9.418;2023-06-26T05:06:31;4.63;;;4.30;;
40755;SDS011;26461;45.630;9.418;2023-06-26T05:09:41;5.30;;;4.63;;
40755;SDS011;26461;45.630;9.418;2023-06-26T05:12:51;8.07;;;4.20;;
40755;SDS011;26461;45.630;9.418;2023-06-26T05:16:00;3.93;;;3.73;;
40755;SDS011;26461;45.630;9.418;2023-06-26T05:19:05;4.77;;;4.47;;
40755;SDS011;26461;45.630;9.418;2023-06-26T05:22:16;4.33;;;3.83;;
40755;SDS011;26461;45.630;9.418;2023-06-26T05:25:26;4.07;;;3.87;;
40755;SDS011;26461;45.630;9.418;2023-06-26T05:28:38;5.60;;;4.63;;
40755;SDS011;26461;45.630;9.418;2023-06-26T05:31:49;5.67;;;4.90;;
40755;SDS011;26461;45.630;9.418;2023-06-26T05:34:56;4.30;;;4.03;;
40755;SDS011;26461;45.630;9.418;2023-06-26T05:38:03;4.40;;;4.10;;
40755;SDS011;26461;45.630;9.418;2023-06-26T05:41:09;5.77;;;5.27;;
40755;SDS011;26461;45.630;9.418;2023-06-26T05:44:14;6.43;;;4.87;;
40755;SDS011;26461;45.630;9.418;2023-06-26T05:47:23;4.60;;;4.30;;
40755;SDS011;26461;45.630;9.418;2023-06-26T05:50:28;4.83;;;4.53;;
40755;SDS011;26461;45.630;9.418;2023-06-26T05:53:34;5.37;;;4.83;;
40755;SDS011;26461;45.630;9.418;2023-06-26T05:56:44;5.80;;;4.03;;
40755;SDS011;26461;45.630;9.418;2023-06-26T05:59:56;4.90;;;4.50;;
40755;SDS011;26461;45.630;9.418;2023-06-26T06:03:01;6.30;;;3.97;;
40755;SDS011;26461;45.630;9.418;2023-06-26T06:06:12;5.80;;;4.00;;
40755;SDS011;26461;45.630;9.418;2023-06-26T06:09:17;6.77;;;4.90;;
40755;SDS011;26461;45.630;9.418;2023-06-26T06:12:22;8.50;;;5.10;;
40755;SDS011;26461;45.630;9.418;2023-06-26T06:15:32;4.30;;;3.67;;
40755;SDS011;26461;45.630;9.418;2023-06-26T06:18:37;4.43;;;4.10;;
40755;SDS011;26461;45.630;9.418;2023-06-26T06:21:47;4.23;;;3.93;;
40755;SDS011;26461;45.630;9.418;2023-06-26T06:24:57;4.73;;;4.43;;
40755;SDS011;26461;45.630;9.418;2023-06-26T06:28:07;7.47;;;4.10;;
40755;SDS011;26461;45.630;9.418;2023-06-26T06:31:17;7.07;;;4.30;;
40755;SDS011;26461;45.630;9.418;2023-06-26T06:34:22;9.70;;;4.70;;
40755;SDS011;26461;45.630;9.418;2023-06-26T06:37:27;5.13;;;4.50;;
40755;SDS011;26461;45.630;9.418;2023-06-26T06:40:33;9.47;;;4.60;;
40755;SDS011;26461;45.630;9.418;2023-06-26T06:43:43;4.80;;;4.50;;
40755;SDS011;26461;45.630;9.418;2023-06-26T06:46:53;5.53;;;5.23;;
40755;SDS011;26461;45.630;9.418;2023-06-26T06:50:04;7.00;;;4.20;;
40755;SDS011;26461;45.630;9.418;2023-06-26T06:53:17;6.20;;;4.63;;
40755;SDS011;26461;45.630;9.418;2023-06-26T06:56:24;5.70;;;4.17;;
40755;SDS011;26461;45.630;9.418;2023-06-26T06:59:29;7.37;;;4.30;;
40755;SDS011;26461;45.630;9.418;2023-06-26T07:02:34;4.97;;;4.67;;
40755;SDS011;26461;45.630;9.418;2023-06-26T07:05:43;5.60;;;5.07;;
40755;SDS011;26461;45.630;9.418;2023-06-26T07:08:53;4.67;;;4.27;;
40755;SDS011;26461;45.630;9.418;2023-06-26T07:11:58;4.87;;;4.60;;
40755;SDS011;26461;45.630;9.418;2023-06-26T07:15:10;6.40;;;4.77;;
40755;SDS011;26461;45.630;9.418;2023-06-26T07:18:21;4.97;;;4.53;;
40755;SDS011;26461;45.630;9.418;2023-06-26T07:21:26;6.87;;;4.53;;
40755;SDS011;26461;45.630;9.418;2023-06-26T07:24:31;4.77;;;4.40;;
40755;SDS011;26461;45.630;9.418;2023-06-26T07:27:37;5.00;;;4.70;;
40755;SDS011;26461;45.630;9.418;2023-06-26T07:30:43;6.80;;;5.80;;
40755;SDS011;26461;45.630;9.418;2023-06-26T07:33:52;5.10;;;4.77;;
40755;SDS011;26461;45.630;9.418;2023-06-26T07:36:57;5.20;;;4.37;;
40755;SDS011;26461;45.630;9.418;2023-06-26T07:40:02;5.43;;;5.17;;
40755;SDS011;26461;45.630;9.418;2023-06-26T07:43:08;11.03;;;5.70;;
40755;SDS011;26461;45.630;9.418;2023-06-26T07:46:18;5.87;;;4.87;;
40755;SDS011;26461;45.630;9.418;2023-06-26T07:49:23;5.57;;;4.97;;
40755;SDS011;26461;45.630;9.418;2023-06-26T07:52:28;6.00;;;5.03;;
40755;SDS011;26461;45.630;9.418;2023-06-26T07:55:34;5.83;;;4.63;;
40755;SDS011;26461;45.630;9.418;2023-06-26T07:58:39;6.93;;;5.20;;
40755;SDS011;26461;45.630;9.418;2023-06-26T08:01:43;4.97;;;4.67;;
40755;SDS011;26461;45.630;9.418;2023-06-26T08:04:49;5.33;;;5.03;;
40755;SDS011;26461;45.630;9.418;2023-06-26T08:07:55;7.10;;;4.50;;
40755;SDS011;26461;45.630;9.418;2023-06-26T08:11:00;5.40;;;5.10;;
40755;SDS011;26461;45.630;9.418;2023-06-26T08:14:05;6.27;;;4.83;;
40755;SDS011;26461;45.630;9.418;2023-06-26T08:17:10;7.33;;;4.30;;
40755;SDS011;26461;45.630;9.418;2023-06-26T08:20:18;5.03;;;4.73;;
40755;SDS011;26461;45.630;9.418;2023-06-26T08:23:24;6.10;;;5.30;;
40755;SDS011;26461;45.630;9.418;2023-06-26T08:26:29;5.13;;;4.87;;
40755;SDS011;26461;45.630;9.418;2023-06-26T08:29:33;6.23;;;5.07;;
40755;SDS011;26461;45.630;9.418;2023-06-26T08:32:38;5.27;;;4.40;;
40755;SDS011;26461;45.630;9.418;2023-06-26T08:35:49;4.67;;;4.40;;
40755;SDS011;26461;45.630;9.418;2023-06-26T08:38:55;5.00;;;4.70;;
40755;SDS011;26461;45.630;9.418;2023-06-26T08:42:05;6.10;;;5.33;;
40755;SDS011;26461;45.630;9.418;2023-06-26T08:45:15;5.67;;;5.37;;
40755;SDS011;26461;45.630;9.418;2023-06-26T08:48:20;5.87;;;5.30;;
40755;SDS011;26461;45.630;9.418;2023-06-26T08:51:26;7.57;;;4.97;;
40755;SDS011;26461;45.630;9.418;2023-06-26T08:54:40;5.47;;;4.83;;
40755;SDS011;26461;45.630;9.418;2023-06-26T08:57:54;5.40;;;5.10;;
40755;SDS011;26461;45.630;9.418;2023-06-26T09:01:06;5.00;;;4.60;;
40755;SDS011;26461;45.630;9.418;2023-06-26T09:04:18;6.67;;;5.30;;
40755;SDS011;26461;45.630;9.418;2023-06-26T09:07:29;4.90;;;4.60;;
40755;SDS011;26461;45.630;9.418;2023-06-26T09:10:39;5.87;;;4.63;;
40755;SDS011;26461;45.630;9.418;2023-06-26T09:13:44;6.13;;;5.43;;
40755;SDS011;26461;45.630;9.418;2023-06-26T09:16:51;5.83;;;5.30;;
40755;SDS011;26461;45.630;9.418;2023-06-26T09:20:01;7.33;;;5.33;;
40755;SDS011;26461;45.630;9.418;2023-06-26T09:23:06;8.13;;;5.73;;
40755;SDS011;26461;45.630;9.418;2023-06-26T09:26:17;7.07;;;5.37;;
40755;SDS011;26461;45.630;9.418;2023-06-26T09:29:22;4.97;;;4.73;;
40755;SDS011;26461;45.630;9.418;2023-06-26T09:32:28;6.67;;;6.27;;
40755;SDS011;26461;45.630;9.418;2023-06-26T09:35:39;6.87;;;6.47;;
40755;SDS011;26461;45.630;9.418;2023-06-26T09:38:49;5.37;;;5.07;;
40755;SDS011;26461;45.630;9.418;2023-06-26T09:42:01;6.07;;;5.03;;
40755;SDS011;26461;45.630;9.418;2023-06-26T09:45:06;8.20;;;6.27;;
40755;SDS011;26461;45.630;9.418;2023-06-26T09:48:12;8.40;;;6.37;;
40755;SDS011;26461;45.630;9.418;2023-06-26T09:51:19;5.77;;;5.00;;
40755;SDS011;26461;45.630;9.418;2023-06-26T09:54:28;4.80;;;4.50;;
40755;SDS011;26461;45.630;9.418;2023-06-26T09:57:40;6.03;;;5.80;;
40755;SDS011;26461;45.630;9.418;2023-06-26T10:00:46;5.77;;;5.47;;
40755;SDS011;26461;45.630;9.418;2023-06-26T10:03:53;6.70;;;6.30;;
40755;SDS011;26461;45.630;9.418;2023-06-26T10:07:08;6.37;;;5.70;;
40755;SDS011;26461;45.630;9.418;2023-06-26T10:10:22;7.00;;;6.40;;
40755;SDS011;26461;45.630;9.418;2023-06-26T10:13:30;7.43;;;6.53;;
40755;SDS011;26461;45.630;9.418;2023-06-26T10:16:39;7.10;;;6.10;;
40755;SDS011;26461;45.630;9.418;2023-06-26T10:19:51;5.90;;;5.60;;
40755;SDS011;26461;45.630;9.418;2023-06-26T10:23:03;6.10;;;5.80;;
40755;SDS011;26461;45.630;9.418;2023-06-26T10:26:16;12.43;;;6.00;;
40755;SDS011;26461;45.630;9.418;2023-06-26T10:29:25;7.23;;;5.83;;
40755;SDS011;26461;45.630;9.418;2023-06-26T10:32:31;11.87;;;6.23;;
40755;SDS011;26461;45.630;9.418;2023-06-26T10:35:42;6.30;;;5.73;;
40755;SDS011;26461;45.630;9.418;2023-06-26T10:38:58;5.47;;;5.17;;
40755;SDS011;26461;45.630;9.418;2023-06-26T10:42:14;7.27;;;5.50;;
40755;SDS011;26461;45.630;9.418;2023-06-26T10:45:20;7.00;;;5.93;;
40755;SDS011;26461;45.630;9.418;2023-06-26T10:48:30;5.83;;;5.53;;
40755;SDS011;26461;45.630;9.418;2023-06-26T10:51:36;6.47;;;6.07;;
40755;SDS011;26461;45.630;9.418;2023-06-26T10:54:42;9.43;;;6.60;;
40755;SDS011;26461;45.630;9.418;2023-06-26T10:57:53;7.00;;;5.70;;
40755;SDS011;26461;45.630;9.418;2023-06-26T11:04:45;6.70;;;6.30;;
40755;SDS011;26461;45.630;9.418;2023-06-26T11:08:03;6.20;;;5.40;;
40755;SDS011;26461;45.630;9.418;2023-06-26T11:11:08;8.47;;;5.60;;
40755;SDS011;26461;45.630;9.418;2023-06-26T11:14:12;7.10;;;6.70;;
40755;SDS011;26461;45.630;9.418;2023-06-26T11:17:18;7.97;;;6.50;;
40755;SDS011;26461;45.630;9.418;2023-06-26T11:20:28;9.53;;;6.70;;
40755;SDS011;26461;45.630;9.418;2023-06-26T11:23:35;6.67;;;6.30;;
40755;SDS011;26461;45.630;9.418;2023-06-26T11:26:46;6.70;;;6.27;;
40755;SDS011;26461;45.630;9.418;2023-06-26T11:29:56;6.07;;;5.77;;
40755;SDS011;26461;45.630;9.418;2023-06-26T11:33:08;7.60;;;7.20;;
40755;SDS011;26461;45.630;9.418;2023-06-26T11:36:19;7.20;;;6.10;;
40755;SDS011;26461;45.630;9.418;2023-06-26T11:39:24;8.17;;;6.13;;
40755;SDS011;26461;45.630;9.418;2023-06-26T11:42:29;6.33;;;5.83;;
40755;SDS011;26461;45.630;9.418;2023-06-26T11:45:39;8.90;;;6.10;;
40755;SDS011;26461;45.630;9.418;2023-06-26T11:48:49;6.87;;;6.47;;
40755;SDS011;26461;45.630;9.418;2023-06-26T11:51:54;5.93;;;5.33;;
40755;SDS011;26461;45.630;9.418;2023-06-26T11:55:04;8.53;;;8.03;;
40755;SDS011;26461;45.630;9.418;2023-06-26T11:58:10;9.77;;;7.27;;
40755;SDS011;26461;45.630;9.418;2023-06-26T12:01:20;10.60;;;6.60;;
40755;SDS011;26461;45.630;9.418;2023-06-26T12:04:31;6.43;;;6.03;;
40755;SDS011;26461;45.630;9.418;2023-06-26T12:07:41;9.13;;;7.30;;
40755;SDS011;26461;45.630;9.418;2023-06-26T12:10:52;8.27;;;6.97;;
40755;SDS011;26461;45.630;9.418;2023-06-26T12:14:02;6.43;;;6.03;;
40755;SDS011;26461;45.630;9.418;2023-06-26T12:17:11;6.93;;;6.57;;
40755;SDS011;26461;45.630;9.418;2023-06-26T12:20:21;7.83;;;6.30;;
40755;SDS011;26461;45.630;9.418;2023-06-26T12:23:33;7.13;;;6.73;;
40755;SDS011;26461;45.630;9.418;2023-06-26T12:26:51;6.53;;;5.97;;
40755;SDS011;26461;45.630;9.418;2023-06-26T12:30:00;8.90;;;6.03;;
40755;SDS011;26461;45.630;9.418;2023-06-26T12:33:14;6.00;;;5.70;;
40755;SDS011;26461;45.630;9.418;2023-06-26T12:36:20;7.43;;;6.50;;
40755;SDS011;26461;45.630;9.418;2023-06-26T12:39:30;7.10;;;6.70;;
40755;SDS011;26461;45.630;9.418;2023-06-26T12:43:05;7.90;;;6.50;;
40755;SDS011;26461;45.630;9.418;2023-06-26T12:46:20;6.70;;;6.30;;
40755;SDS011;26461;45.630;9.418;2023-06-26T12:49:37;9.40;;;6.80;;
40755;SDS011;26461;45.630;9.418;2023-06-26T12:52:48;10.13;;;7.20;;
40755;SDS011;26461;45.630;9.418;2023-06-26T12:55:54;7.53;;;7.13;;
40755;SDS011;26461;45.630;9.418;2023-06-26T12:59:04;7.53;;;7.00;;
40755;SDS011;26461;45.630;9.418;2023-06-26T13:02:14;6.80;;;6.00;;
40755;SDS011;26461;45.630;9.418;2023-06-26T13:05:19;8.27;;;7.87;;
40755;SDS011;26461;45.630;9.418;2023-06-26T13:08:24;8.20;;;7.73;;
40755;SDS011;26461;45.630;9.418;2023-06-26T13:11:34;9.10;;;7.10;;
40755;SDS011;26461;45.630;9.418;2023-06-26T13:14:46;8.60;;;6.87;;
40755;SDS011;26461;45.630;9.418;2023-06-26T13:17:56;7.87;;;7.20;;
40755;SDS011;26461;45.630;9.418;2023-06-26T13:21:06;9.50;;;6.63;;
40755;SDS011;26461;45.630;9.418;2023-06-26T13:24:11;9.17;;;6.70;;
40755;SDS011;26461;45.630;9.418;2023-06-26T13:27:16;6.67;;;6.27;;
40755;SDS011;26461;45.630;9.418;2023-06-26T13:30:26;6.80;;;6.40;;
40755;SDS011;26461;45.630;9.418;2023-06-26T13:33:31;8.83;;;7.20;;
40755;SDS011;26461;45.630;9.418;2023-06-26T13:36:41;14.63;;;6.87;;
40755;SDS011;26461;45.630;9.418;2023-06-26T13:39:47;8.83;;;7.20;;
40755;SDS011;26461;45.630;9.418;2023-06-26T13:42:59;7.33;;;6.90;;
40755;SDS011;26461;45.630;9.418;2023-06-26T13:46:09;7.90;;;7.50;;
40755;SDS011;26461;45.630;9.418;2023-06-26T13:49:18;7.30;;;6.30;;
40755;SDS011;26461;45.630;9.418;2023-06-26T13:52:30;8.20;;;7.80;;
40755;SDS011;26461;45.630;9.418;2023-06-26T13:55:40;7.77;;;7.37;;
40755;SDS011;26461;45.630;9.418;2023-06-26T13:58:45;8.00;;;7.43;;
40755;SDS011;26461;45.630;9.418;2023-06-26T14:01:50;9.93;;;7.20;;
40755;SDS011;26461;45.630;9.418;2023-06-26T14:05:01;7.53;;;7.03;;
40755;SDS011;26461;45.630;9.418;2023-06-26T14:08:13;9.30;;;8.43;;
40755;SDS011;26461;45.630;9.418;2023-06-26T14:11:23;7.50;;;7.10;;
40755;SDS011;26461;45.630;9.418;2023-06-26T14:14:33;8.00;;;6.43;;
40755;SDS011;26461;45.630;9.418;2023-06-26T14:17:42;7.63;;;7.23;;
40755;SDS011;26461;45.630;9.418;2023-06-26T14:20:52;8.73;;;8.23;;
40755;SDS011;26461;45.630;9.418;2023-06-26T14:24:03;9.50;;;7.30;;
40755;SDS011;26461;45.630;9.418;2023-06-26T14:27:13;10.47;;;7.50;;
40755;SDS011;26461;45.630;9.418;2023-06-26T14:30:18;7.77;;;7.37;;
40755;SDS011;26461;45.630;9.418;2023-06-26T14:33:29;7.50;;;7.10;;
40755;SDS011;26461;45.630;9.418;2023-06-26T14:36:39;7.87;;;7.40;;
40755;SDS011;26461;45.630;9.418;2023-06-26T14:39:48;7.57;;;7.17;;
40755;SDS011;26461;45.630;9.418;2023-06-26T14:42:59;9.83;;;9.07;;
40755;SDS011;26461;45.630;9.418;2023-06-26T14:46:08;12.60;;;8.07;;
40755;SDS011;26461;45.630;9.418;2023-06-26T14:49:18;7.20;;;6.80;;
40755;SDS011;26461;45.630;9.418;2023-06-26T14:52:28;8.87;;;8.00;;
40755;SDS011;26461;45.630;9.418;2023-06-26T14:55:33;7.97;;;7.57;;
40755;SDS011;26461;45.630;9.418;2023-06-26T14:58:37;10.67;;;8.50;;
40755;SDS011;26461;45.630;9.418;2023-06-26T15:01:47;9.33;;;7.83;;
40755;SDS011;26461;45.630;9.418;2023-06-26T15:04:57;9.00;;;8.50;;
40755;SDS011;26461;45.630;9.418;2023-06-26T15:08:08;9.83;;;8.73;;
40755;SDS011;26461;45.630;9.418;2023-06-26T15:11:20;7.83;;;7.30;;
40755;SDS011;26461;45.630;9.418;2023-06-26T15:14:30;8.63;;;8.13;;
40755;SDS011;26461;45.630;9.418;2023-06-26T15:17:39;8.27;;;7.87;;
40755;SDS011;26461;45.630;9.418;2023-06-26T15:20:49;11.10;;;8.03;;
40755;SDS011;26461;45.630;9.418;2023-06-26T15:23:54;11.30;;;7.60;;
40755;SDS011;26461;45.630;9.418;2023-06-26T15:27:04;7.97;;;7.57;;
40755;SDS011;26461;45.630;9.418;2023-06-26T15:30:14;9.03;;;7.37;;
40755;SDS011;26461;45.630;9.418;2023-06-26T15:33:24;7.93;;;7.53;;
40755;SDS011;26461;45.630;9.418;2023-06-26T15:36:29;7.40;;;7.00;;
40755;SDS011;26461;45.630;9.418;2023-06-26T15:39:41;10.33;;;7.80;;
40755;SDS011;26461;45.630;9.418;2023-06-26T15:42:51;8.73;;;7.80;;
40755;SDS011;26461;45.630;9.418;2023-06-26T15:46:04;7.60;;;7.20;;
40755;SDS011;26461;45.630;9.418;2023-06-26T15:49:15;8.97;;;8.47;;
40755;SDS011;26461;45.630;9.418;2023-06-26T15:52:25;15.87;;;8.40;;
40755;SDS011;26461;45.630;9.418;2023-06-26T15:55:35;8.03;;;7.63;;
40755;SDS011;26461;45.630;9.418;2023-06-26T15:58:45;11.13;;;8.37;;
40755;SDS011;26461;45.630;9.418;2023-06-26T16:01:56;8.43;;;7.97;;
40755;SDS011;26461;45.630;9.418;2023-06-26T16:05:06;9.90;;;7.57;;
40755;SDS011;26461;45.630;9.418;2023-06-26T16:08:17;8.17;;;7.77;;
40755;SDS011;26461;45.630;9.418;2023-06-26T16:11:27;9.20;;;7.60;;
40755;SDS011;26461;45.630;9.418;2023-06-26T16:14:32;7.90;;;7.50;;
40755;SDS011;26461;45.630;9.418;2023-06-26T16:17:43;7.63;;;7.23;;
40755;SDS011;26461;45.630;9.418;2023-06-26T16:20:53;11.27;;;8.60;;
40755;SDS011;26461;45.630;9.418;2023-06-26T16:24:03;11.83;;;7.80;;
40755;SDS011;26461;45.630;9.418;2023-06-26T16:27:13;8.73;;;8.13;;
40755;SDS011;26461;45.630;9.418;2023-06-26T16:30:23;7.97;;;7.57;;
40755;SDS011;26461;45.630;9.418;2023-06-26T16:33:33;15.03;;;7.67;;
40755;SDS011;26461;45.630;9.418;2023-06-26T16:36:43;8.57;;;8.07;;
40755;SDS011;26461;45.630;9.418;2023-06-26T16:39:48;7.93;;;7.53;;
40755;SDS011;26461;45.630;9.418;2023-06-26T16:42:58;8.27;;;7.00;;
40755;SDS011;26461;45.630;9.418;2023-06-26T16:46:08;7.40;;;7.00;;
40755;SDS011;26461;45.630;9.418;2023-06-26T16:49:18;7.90;;;7.50;;
40755;SDS011;26461;45.630;9.418;2023-06-26T16:52:28;7.63;;;6.57;;
40755;SDS011;26461;45.630;9.418;2023-06-26T16:55:38;9.33;;;6.70;;
40755;SDS011;26461;45.630;9.418;2023-06-26T16:58:48;9.70;;;7.73;;
40755;SDS011;26461;45.630;9.418;2023-06-26T17:01:58;6.33;;;5.90;;
40755;SDS011;26461;45.630;9.418;2023-06-26T17:05:10;8.00;;;7.50;;
40755;SDS011;26461;45.630;9.418;2023-06-26T17:08:21;14.93;;;7.27;;
40755;SDS011;26461;45.630;9.418;2023-06-26T17:11:31;8.67;;;7.30;;
40755;SDS011;26461;45.630;9.418;2023-06-26T17:14:41;7.47;;;7.07;;
40755;SDS011;26461;45.630;9.418;2023-06-26T17:17:50;7.77;;;7.20;;
40755;SDS011;26461;45.630;9.418;2023-06-26T17:20:55;7.43;;;7.03;;
40755;SDS011;26461;45.630;9.418;2023-06-26T17:24:00;8.60;;;7.27;;
40755;SDS011;26461;45.630;9.418;2023-06-26T17:27:12;9.43;;;7.20;;
40755;SDS011;26461;45.630;9.418;2023-06-26T17:30:19;7.67;;;7.27;;
40755;SDS011;26461;45.630;9.418;2023-06-26T17:33:28;7.87;;;6.60;;
40755;SDS011;26461;45.630;9.418;2023-06-26T17:36:33;12.10;;;6.33;;
40755;SDS011;26461;45.630;9.418;2023-06-26T17:39:38;12.47;;;7.20;;
40755;SDS011;26461;45.630;9.418;2023-06-26T17:42:48;7.27;;;6.40;;
40755;SDS011;26461;45.630;9.418;2023-06-26T17:45:58;10.30;;;6.40;;
40755;SDS011;26461;45.630;9.418;2023-06-26T17:49:08;9.70;;;6.80;;
40755;SDS011;26461;45.630;9.418;2023-06-26T17:52:18;11.03;;;8.10;;
40755;SDS011;26461;45.630;9.418;2023-06-26T17:55:23;7.70;;;7.30;;
40755;SDS011;26461;45.630;9.418;2023-06-26T17:58:33;14.60;;;7.70;;
40755;SDS011;26461;45.630;9.418;2023-06-26T18:01:44;7.40;;;6.73;;
40755;SDS011;26461;45.630;9.418;2023-06-26T18:04:54;8.10;;;7.70;;
40755;SDS011;26461;45.630;9.418;2023-06-26T18:07:59;8.30;;;7.37;;
40755;SDS011;26461;45.630;9.418;2023-06-26T18:11:09;8.20;;;7.80;;
40755;SDS011;26461;45.630;9.418;2023-06-26T18:14:14;7.73;;;7.33;;
40755;SDS011;26461;45.630;9.418;2023-06-26T18:17:24;7.87;;;7.47;;
40755;SDS011;26461;45.630;9.418;2023-06-26T18:20:34;7.80;;;7.40;;
40755;SDS011;26461;45.630;9.418;2023-06-26T18:23:44;9.77;;;7.77;;
40755;SDS011;26461;45.630;9.418;2023-06-26T18:26:56;6.80;;;6.40;;
40755;SDS011;26461;45.630;9.418;2023-06-26T18:30:01;7.60;;;7.20;;
40755;SDS011;26461;45.630;9.418;2023-06-26T18:33:12;7.07;;;6.67;;
40755;SDS011;26461;45.630;9.418;2023-06-26T18:36:17;7.37;;;6.97;;
40755;SDS011;26461;45.630;9.418;2023-06-26T18:39:23;12.93;;;6.63;;
40755;SDS011;26461;45.630;9.418;2023-06-26T18:42:34;6.90;;;6.50;;
40755;SDS011;26461;45.630;9.418;2023-06-26T18:45:44;6.93;;;6.30;;
40755;SDS011;26461;45.630;9.418;2023-06-26T18:49:00;8.07;;;7.23;;
40755;SDS011;26461;45.630;9.418;2023-06-26T18:52:11;9.10;;;6.93;;
40755;SDS011;26461;45.630;9.418;2023-06-26T18:55:21;7.73;;;7.37;;
40755;SDS011;26461;45.630;9.418;2023-06-26T18:58:31;8.23;;;7.33;;
40755;SDS011;26461;45.630;9.418;2023-06-26T19:01:40;8.10;;;7.37;;
40755;SDS011;26461;45.630;9.418;2023-06-26T19:04:50;8.10;;;7.13;;